sensor_id;sensor_type;location;lat;lon;timestamp;temperature;humidity
25332;DHT22;13284;52.748;13.452;2023-04-25T00:00:47;8.60;99.90
25332;DHT22;13284;52.748;13.452;2023-04-25T00:03:13;8.60;99.90
25332;DHT22;13284;52.748;13.452;2023-04-25T00:05:41;8.60;99.90
25332;DHT22;13284;52.748;13.452;2023-04-25T00:08:07;8.60;99.90
25332;DHT22;13284;52.748;13.452;2023-04-25T00:10:32;8.60;99.90
25332;DHT22;13284;52.748;13.452;2023-04-25T00:12:58;8.60;99.90
25332;DHT22;13284;52.748;13.452;2023-04-25T00:15:24;8.60;99.90
25332;DHT22;13284;52.748;13.452;2023-04-25T00:17:50;8.70;99.90
25332;DHT22;13284;52.748;13.452;2023-04-25T00:20:18;8.70;99.90
25332;DHT22;13284;52.748;13.452;2023-04-25T00:22:43;8.70;99.90
25332;DHT22;13284;52.748;13.452;2023-04-25T00:25:09;8.80;99.90
25332;DHT22;13284;52.748;13.452;2023-04-25T00:27:34;8.70;99.90
25332;DHT22;13284;52.748;13.452;2023-04-25T00:30:00;8.70;99.90
25332;DHT22;13284;52.748;13.452;2023-04-25T00:32:26;8.70;99.90
25332;DHT22;13284;52.748;13.452;2023-04-25T00:34:51;8.70;99.90
25332;DHT22;13284;52.748;13.452;2023-04-25T00:37:17;8.70;99.90
25332;DHT22;13284;52.748;13.452;2023-04-25T00:39:43;8.70;99.90
25332;DHT22;13284;52.748;13.452;2023-04-25T00:42:10;8.70;99.90
25332;DHT22;13284;52.748;13.452;2023-04-25T00:44:37;8.70;99.90
25332;DHT22;13284;52.748;13.452;2023-04-25T00:47:02;8.70;99.90
25332;DHT22;13284;52.748;13.452;2023-04-25T00:49:28;8.70;99.90
25332;DHT22;13284;52.748;13.452;2023-04-25T00:51:54;8.70;99.90
25332;DHT22;13284;52.748;13.452;2023-04-25T00:54:20;8.70;99.90
25332;DHT22;13284;52.748;13.452;2023-04-25T00:56:45;8.70;99.90
25332;DHT22;13284;52.748;13.452;2023-04-25T00:59:11;8.70;99.90
25332;DHT22;13284;52.748;13.452;2023-04-25T01:01:38;8.70;99.90
25332;DHT22;13284;52.748;13.452;2023-04-25T01:04:04;8.70;99.90
25332;DHT22;13284;52.748;13.452;2023-04-25T01:06:30;8.70;99.90
25332;DHT22;13284;52.748;13.452;2023-04-25T01:08:56;8.70;99.90
25332;DHT22;13284;52.748;13.452;2023-04-25T01:11:22;8.70;99.90
25332;DHT22;13284;52.748;13.452;2023-04-25T01:13:47;8.70;99.90
25332;DHT22;13284;52.748;13.452;2023-04-25T01:16:13;8.60;99.90
25332;DHT22;13284;52.748;13.452;2023-04-25T01:18:40;8.60;99.90
25332;DHT22;13284;52.748;13.452;2023-04-25T01:21:10;8.60;99.90
25332;DHT22;13284;52.748;13.452;2023-04-25T01:23:40;8.60;99.90
25332;DHT22;13284;52.748;13.452;2023-04-25T01:26:07;8.60;99.90
25332;DHT22;13284;52.748;13.452;2023-04-25T01:28:34;8.60;99.90
25332;DHT22;13284;52.748;13.452;2023-04-25T01:31:01;8.60;99.90
25332;DHT22;13284;52.748;13.452;2023-04-25T01:33:26;8.60;99.90
25332;DHT22;13284;52.748;13.452;2023-04-25T01:35:52;8.60;99.90
25332;DHT22;13284;52.748;13.452;2023-04-25T01:38:18;8.60;99.90
25332;DHT22;13284;52.748;13.452;2023-04-25T01:40:45;8.60;99.90
25332;DHT22;13284;52.748;13.452;2023-04-25T01:43:12;8.60;99.90
25332;DHT22;13284;52.748;13.452;2023-04-25T01:45:40;8.60;99.90
25332;DHT22;13284;52.748;13.452;2023-04-25T01:48:10;8.60;99.90
25332;DHT22;13284;52.748;13.452;2023-04-25T01:50:37;8.60;99.90
25332;DHT22;13284;52.748;13.452;2023-04-25T01:53:04;8.50;99.90
25332;DHT22;13284;52.748;13.452;2023-04-25T01:55:30;8.50;99.90
25332;DHT22;13284;52.748;13.452;2023-04-25T01:57:55;8.50;99.90
25332;DHT22;13284;52.748;13.452;2023-04-25T02:00:21;8.50;99.90
25332;DHT22;13284;52.748;13.452;2023-04-25T02:02:47;8.50;99.90
25332;DHT22;13284;52.748;13.452;2023-04-25T02:05:13;8.50;99.90
25332;DHT22;13284;52.748;13.452;2023-04-25T02:07:39;8.50;99.90
25332;DHT22;13284;52.748;13.452;2023-04-25T02:10:05;8.40;99.90
25332;DHT22;13284;52.748;13.452;2023-04-25T02:12:31;8.40;99.90
25332;DHT22;13284;52.748;13.452;2023-04-25T02:14:57;8.40;99.90
25332;DHT22;13284;52.748;13.452;2023-04-25T02:17:22;8.40;99.90
25332;DHT22;13284;52.748;13.452;2023-04-25T02:19:48;8.40;99.90
25332;DHT22;13284;52.748;13.452;2023-04-25T02:22:14;8.40;99.90
25332;DHT22;13284;52.748;13.452;2023-04-25T02:24:39;8.40;99.90
25332;DHT22;13284;52.748;13.452;2023-04-25T02:27:05;8.40;99.90
25332;DHT22;13284;52.748;13.452;2023-04-25T02:29:31;8.40;99.90
25332;DHT22;13284;52.748;13.452;2023-04-25T02:31:56;8.40;99.90
25332;DHT22;13284;52.748;13.452;2023-04-25T02:34:22;8.40;99.90
25332;DHT22;13284;52.748;13.452;2023-04-25T02:36:49;8.40;99.90
25332;DHT22;13284;52.748;13.452;2023-04-25T02:39:17;8.40;99.90
25332;DHT22;13284;52.748;13.452;2023-04-25T02:41:43;8.40;99.90
25332;DHT22;13284;52.748;13.452;2023-04-25T02:44:08;8.40;99.90
25332;DHT22;13284;52.748;13.452;2023-04-25T02:46:34;8.40;99.90
25332;DHT22;13284;52.748;13.452;2023-04-25T02:48:59;8.40;99.90
25332;DHT22;13284;52.748;13.452;2023-04-25T02:51:25;8.40;99.90
25332;DHT22;13284;52.748;13.452;2023-04-25T02:53:51;8.40;99.90
25332;DHT22;13284;52.748;13.452;2023-04-25T02:56:17;8.40;99.90
25332;DHT22;13284;52.748;13.452;2023-04-25T02:58:42;8.40;99.90
25332;DHT22;13284;52.748;13.452;2023-04-25T03:01:08;8.40;99.90
25332;DHT22;13284;52.748;13.452;2023-04-25T03:03:33;8.40;99.90
25332;DHT22;13284;52.748;13.452;2023-04-25T03:05:59;8.40;99.90
25332;DHT22;13284;52.748;13.452;2023-04-25T03:08:24;8.40;99.90
25332;DHT22;13284;52.748;13.452;2023-04-25T03:10:50;8.40;99.90
25332;DHT22;13284;52.748;13.452;2023-04-25T03:13:17;8.40;99.90
25332;DHT22;13284;52.748;13.452;2023-04-25T03:15:43;8.40;99.90
25332;DHT22;13284;52.748;13.452;2023-04-25T03:18:09;8.40;99.90
25332;DHT22;13284;52.748;13.452;2023-04-25T03:20:37;8.30;99.90
25332;DHT22;13284;52.748;13.452;2023-04-25T03:23:02;8.40;99.90
25332;DHT22;13284;52.748;13.452;2023-04-25T03:25:28;8.40;99.90
25332;DHT22;13284;52.748;13.452;2023-04-25T03:27:53;8.40;99.90
25332;DHT22;13284;52.748;13.452;2023-04-25T03:30:18;8.40;99.90
25332;DHT22;13284;52.748;13.452;2023-04-25T03:32:44;8.40;99.90
25332;DHT22;13284;52.748;13.452;2023-04-25T03:35:10;8.40;99.90
25332;DHT22;13284;52.748;13.452;2023-04-25T03:37:35;8.40;99.90
25332;DHT22;13284;52.748;13.452;2023-04-25T03:40:01;8.40;99.90
25332;DHT22;13284;52.748;13.452;2023-04-25T03:42:26;8.40;99.90
25332;DHT22;13284;52.748;13.452;2023-04-25T03:44:52;8.40;99.90
25332;DHT22;13284;52.748;13.452;2023-04-25T03:47:18;8.40;99.90
25332;DHT22;13284;52.748;13.452;2023-04-25T03:49:43;8.40;99.90
25332;DHT22;13284;52.748;13.452;2023-04-25T03:52:09;8.40;99.90
25332;DHT22;13284;52.748;13.452;2023-04-25T03:54:35;8.40;99.90
25332;DHT22;13284;52.748;13.452;2023-04-25T03:57:00;8.40;99.90
25332;DHT22;13284;52.748;13.452;2023-04-25T03:59:26;8.50;99.90
25332;DHT22;13284;52.748;13.452;2023-04-25T04:01:52;8.40;99.90
25332;DHT22;13284;52.748;13.452;2023-04-25T04:04:17;8.40;99.90
25332;DHT22;13284;52.748;13.452;2023-04-25T04:06:43;8.40;99.90
25332;DHT22;13284;52.748;13.452;2023-04-25T04:09:09;8.40;99.90
25332;DHT22;13284;52.748;13.452;2023-04-25T04:11:37;8.40;99.90
25332;DHT22;13284;52.748;13.452;2023-04-25T04:14:04;8.40;99.90
25332;DHT22;13284;52.748;13.452;2023-04-25T04:16:30;8.40;99.90
25332;DHT22;13284;52.748;13.452;2023-04-25T04:18:56;8.40;99.90
25332;DHT22;13284;52.748;13.452;2023-04-25T04:21:22;8.40;99.90
25332;DHT22;13284;52.748;13.452;2023-04-25T04:23:47;8.40;99.90
25332;DHT22;13284;52.748;13.452;2023-04-25T04:26:22;8.30;99.90
25332;DHT22;13284;52.748;13.452;2023-04-25T04:28:49;8.40;99.90
25332;DHT22;13284;52.748;13.452;2023-04-25T04:31:16;8.30;99.90
25332;DHT22;13284;52.748;13.452;2023-04-25T04:33:43;8.40;99.90
25332;DHT22;13284;52.748;13.452;2023-04-25T04:36:09;8.40;99.90
25332;DHT22;13284;52.748;13.452;2023-04-25T04:38:35;8.40;99.90
25332;DHT22;13284;52.748;13.452;2023-04-25T04:41:01;8.30;99.90
25332;DHT22;13284;52.748;13.452;2023-04-25T04:43:27;8.40;99.90
25332;DHT22;13284;52.748;13.452;2023-04-25T04:45:53;8.40;99.90
25332;DHT22;13284;52.748;13.452;2023-04-25T04:48:21;8.30;99.90
25332;DHT22;13284;52.748;13.452;2023-04-25T04:50:47;8.30;99.90
25332;DHT22;13284;52.748;13.452;2023-04-25T04:53:12;8.40;99.90
25332;DHT22;13284;52.748;13.452;2023-04-25T04:55:38;8.40;99.90
25332;DHT22;13284;52.748;13.452;2023-04-25T04:58:04;8.40;99.90
25332;DHT22;13284;52.748;13.452;2023-04-25T05:00:29;8.40;99.90
25332;DHT22;13284;52.748;13.452;2023-04-25T05:02:58;8.40;99.90
25332;DHT22;13284;52.748;13.452;2023-04-25T05:05:25;8.40;99.90
25332;DHT22;13284;52.748;13.452;2023-04-25T05:07:51;8.30;99.90
25332;DHT22;13284;52.748;13.452;2023-04-25T05:10:18;8.40;99.90
25332;DHT22;13284;52.748;13.452;2023-04-25T05:12:43;8.40;99.90
25332;DHT22;13284;52.748;13.452;2023-04-25T05:15:09;8.40;99.90
25332;DHT22;13284;52.748;13.452;2023-04-25T05:17:35;8.40;99.90
25332;DHT22;13284;52.748;13.452;2023-04-25T05:20:01;8.40;99.90
25332;DHT22;13284;52.748;13.452;2023-04-25T05:22:26;8.40;99.90
25332;DHT22;13284;52.748;13.452;2023-04-25T05:24:52;8.40;99.90
25332;DHT22;13284;52.748;13.452;2023-04-25T05:27:18;8.40;99.90
25332;DHT22;13284;52.748;13.452;2023-04-25T05:29:44;8.40;99.90
25332;DHT22;13284;52.748;13.452;2023-04-25T05:32:10;8.40;99.90
25332;DHT22;13284;52.748;13.452;2023-04-25T05:34:36;8.40;99.90
25332;DHT22;13284;52.748;13.452;2023-04-25T05:37:02;8.40;99.90
25332;DHT22;13284;52.748;13.452;2023-04-25T05:39:28;8.40;99.90
25332;DHT22;13284;52.748;13.452;2023-04-25T05:41:53;8.50;99.90
25332;DHT22;13284;52.748;13.452;2023-04-25T05:44:19;8.50;99.90
25332;DHT22;13284;52.748;13.452;2023-04-25T05:46:44;8.50;99.90
25332;DHT22;13284;52.748;13.452;2023-04-25T05:49:10;8.50;99.90
25332;DHT22;13284;52.748;13.452;2023-04-25T05:51:35;8.50;99.90
25332;DHT22;13284;52.748;13.452;2023-04-25T05:54:01;8.50;99.90
25332;DHT22;13284;52.748;13.452;2023-04-25T05:56:26;8.50;99.90
25332;DHT22;13284;52.748;13.452;2023-04-25T05:58:52;8.50;99.90
25332;DHT22;13284;52.748;13.452;2023-04-25T06:01:18;8.50;99.90
25332;DHT22;13284;52.748;13.452;2023-04-25T06:03:43;8.50;99.90
25332;DHT22;13284;52.748;13.452;2023-04-25T06:06:11;8.60;99.90
25332;DHT22;13284;52.748;13.452;2023-04-25T06:08:36;8.50;99.90
25332;DHT22;13284;52.748;13.452;2023-04-25T06:11:03;8.60;99.90
25332;DHT22;13284;52.748;13.452;2023-04-25T06:13:28;8.50;99.90
25332;DHT22;13284;52.748;13.452;2023-04-25T06:15:54;8.50;99.90
25332;DHT22;13284;52.748;13.452;2023-04-25T06:18:19;8.50;99.90
25332;DHT22;13284;52.748;13.452;2023-04-25T06:20:45;8.50;99.90
25332;DHT22;13284;52.748;13.452;2023-04-25T06:23:10;8.50;99.90
25332;DHT22;13284;52.748;13.452;2023-04-25T06:25:36;8.60;99.90
25332;DHT22;13284;52.748;13.452;2023-04-25T06:28:01;8.60;99.90
25332;DHT22;13284;52.748;13.452;2023-04-25T06:30:27;8.40;99.90
25332;DHT22;13284;52.748;13.452;2023-04-25T06:32:53;8.50;99.90
25332;DHT22;13284;52.748;13.452;2023-04-25T06:35:18;8.60;99.90
25332;DHT22;13284;52.748;13.452;2023-04-25T06:37:44;8.50;99.90
25332;DHT22;13284;52.748;13.452;2023-04-25T06:40:10;8.70;99.90
25332;DHT22;13284;52.748;13.452;2023-04-25T06:42:36;8.60;99.90
25332;DHT22;13284;52.748;13.452;2023-04-25T06:45:02;8.70;99.90
25332;DHT22;13284;52.748;13.452;2023-04-25T06:47:28;8.60;99.90
25332;DHT22;13284;52.748;13.452;2023-04-25T06:49:53;8.60;99.90
25332;DHT22;13284;52.748;13.452;2023-04-25T06:52:19;8.60;99.90
25332;DHT22;13284;52.748;13.452;2023-04-25T06:54:44;8.60;99.90
25332;DHT22;13284;52.748;13.452;2023-04-25T06:57:10;8.70;99.90
25332;DHT22;13284;52.748;13.452;2023-04-25T06:59:36;8.70;99.90
25332;DHT22;13284;52.748;13.452;2023-04-25T07:02:01;8.60;99.90
25332;DHT22;13284;52.748;13.452;2023-04-25T07:04:27;8.60;99.90
25332;DHT22;13284;52.748;13.452;2023-04-25T07:06:53;8.70;99.90
25332;DHT22;13284;52.748;13.452;2023-04-25T07:09:18;8.60;99.90
25332;DHT22;13284;52.748;13.452;2023-04-25T07:11:44;8.60;99.90
25332;DHT22;13284;52.748;13.452;2023-04-25T07:14:10;8.50;99.90
25332;DHT22;13284;52.748;13.452;2023-04-25T07:16:35;8.50;99.90
25332;DHT22;13284;52.748;13.452;2023-04-25T07:19:01;8.60;99.90
25332;DHT22;13284;52.748;13.452;2023-04-25T07:21:26;8.60;99.90
25332;DHT22;13284;52.748;13.452;2023-04-25T07:23:52;8.60;99.90
25332;DHT22;13284;52.748;13.452;2023-04-25T07:26:17;8.60;99.90
25332;DHT22;13284;52.748;13.452;2023-04-25T07:28:43;8.70;99.90
25332;DHT22;13284;52.748;13.452;2023-04-25T07:31:08;8.80;99.90
25332;DHT22;13284;52.748;13.452;2023-04-25T07:33:34;8.70;99.90
25332;DHT22;13284;52.748;13.452;2023-04-25T07:36:00;8.90;99.90
25332;DHT22;13284;52.748;13.452;2023-04-25T07:38:25;8.80;99.90
25332;DHT22;13284;52.748;13.452;2023-04-25T07:40:51;8.80;99.90
25332;DHT22;13284;52.748;13.452;2023-04-25T07:43:16;8.80;99.90
25332;DHT22;13284;52.748;13.452;2023-04-25T07:45:46;8.70;99.90
25332;DHT22;13284;52.748;13.452;2023-04-25T07:48:15;8.50;99.90
25332;DHT22;13284;52.748;13.452;2023-04-25T07:50:41;8.50;99.90
25332;DHT22;13284;52.748;13.452;2023-04-25T07:53:07;8.40;99.90
25332;DHT22;13284;52.748;13.452;2023-04-25T07:55:32;8.30;99.90
25332;DHT22;13284;52.748;13.452;2023-04-25T07:57:58;8.40;99.90
25332;DHT22;13284;52.748;13.452;2023-04-25T08:00:23;8.40;99.90
25332;DHT22;13284;52.748;13.452;2023-04-25T08:02:48;8.60;99.90
25332;DHT22;13284;52.748;13.452;2023-04-25T08:05:16;8.60;99.90
25332;DHT22;13284;52.748;13.452;2023-04-25T08:07:41;8.50;99.90
25332;DHT22;13284;52.748;13.452;2023-04-25T08:10:08;8.40;99.90
25332;DHT22;13284;52.748;13.452;2023-04-25T08:12:33;8.40;99.90
25332;DHT22;13284;52.748;13.452;2023-04-25T08:14:59;8.60;99.90
25332;DHT22;13284;52.748;13.452;2023-04-25T08:17:24;8.90;99.90
25332;DHT22;13284;52.748;13.452;2023-04-25T08:19:50;9.30;99.90
25332;DHT22;13284;52.748;13.452;2023-04-25T08:22:15;9.80;99.90
25332;DHT22;13284;52.748;13.452;2023-04-25T08:24:41;9.80;99.90
25332;DHT22;13284;52.748;13.452;2023-04-25T08:27:07;10.10;99.90
25332;DHT22;13284;52.748;13.452;2023-04-25T08:29:33;10.20;99.90
25332;DHT22;13284;52.748;13.452;2023-04-25T08:31:59;10.10;99.90
25332;DHT22;13284;52.748;13.452;2023-04-25T08:34:24;10.40;99.90
25332;DHT22;13284;52.748;13.452;2023-04-25T08:36:51;10.90;99.90
25332;DHT22;13284;52.748;13.452;2023-04-25T08:39:17;10.90;99.90
25332;DHT22;13284;52.748;13.452;2023-04-25T08:41:43;10.70;99.90
25332;DHT22;13284;52.748;13.452;2023-04-25T08:44:11;10.70;99.90
25332;DHT22;13284;52.748;13.452;2023-04-25T08:46:38;10.70;99.90
25332;DHT22;13284;52.748;13.452;2023-04-25T08:49:04;10.50;99.90
25332;DHT22;13284;52.748;13.452;2023-04-25T08:51:32;10.60;99.90
25332;DHT22;13284;52.748;13.452;2023-04-25T08:56:35;11.60;99.90
25332;DHT22;13284;52.748;13.452;2023-04-25T08:59:01;11.80;99.90
25332;DHT22;13284;52.748;13.452;2023-04-25T09:01:27;12.50;99.90
25332;DHT22;13284;52.748;13.452;2023-04-25T09:03:53;12.70;99.90
25332;DHT22;13284;52.748;13.452;2023-04-25T09:06:19;12.10;99.90
25332;DHT22;13284;52.748;13.452;2023-04-25T09:08:45;11.70;99.90
25332;DHT22;13284;52.748;13.452;2023-04-25T09:11:15;11.50;99.90
25332;DHT22;13284;52.748;13.452;2023-04-25T09:13:40;12.20;99.90
25332;DHT22;13284;52.748;13.452;2023-04-25T09:16:06;13.00;99.90
25332;DHT22;13284;52.748;13.452;2023-04-25T09:18:33;13.30;99.90
25332;DHT22;13284;52.748;13.452;2023-04-25T09:21:10;14.10;99.90
25332;DHT22;13284;52.748;13.452;2023-04-25T09:23:44;13.70;99.90
25332;DHT22;13284;52.748;13.452;2023-04-25T09:26:09;12.80;99.90
25332;DHT22;13284;52.748;13.452;2023-04-25T09:28:35;13.10;99.90
25332;DHT22;13284;52.748;13.452;2023-04-25T09:31:01;13.10;99.90
25332;DHT22;13284;52.748;13.452;2023-04-25T09:33:32;12.70;99.90
25332;DHT22;13284;52.748;13.452;2023-04-25T09:36:08;12.50;99.90
25332;DHT22;13284;52.748;13.452;2023-04-25T09:38:42;13.30;99.90
25332;DHT22;13284;52.748;13.452;2023-04-25T09:41:09;13.60;99.90
25332;DHT22;13284;52.748;13.452;2023-04-25T09:43:36;13.30;99.90
25332;DHT22;13284;52.748;13.452;2023-04-25T09:46:02;13.40;99.90
25332;DHT22;13284;52.748;13.452;2023-04-25T09:48:28;13.10;99.90
25332;DHT22;13284;52.748;13.452;2023-04-25T09:53:29;12.10;99.90
25332;DHT22;13284;52.748;13.452;2023-04-25T09:55:55;12.20;99.90
25332;DHT22;13284;52.748;13.452;2023-04-25T09:58:23;12.10;99.90
25332;DHT22;13284;52.748;13.452;2023-04-25T10:00:50;12.30;99.90
25332;DHT22;13284;52.748;13.452;2023-04-25T10:03:17;12.90;99.90
25332;DHT22;13284;52.748;13.452;2023-04-25T10:05:44;12.40;99.90
25332;DHT22;13284;52.748;13.452;2023-04-25T10:08:11;12.80;99.90
25332;DHT22;13284;52.748;13.452;2023-04-25T10:10:38;12.30;99.90
25332;DHT22;13284;52.748;13.452;2023-04-25T10:13:05;12.00;99.90
25332;DHT22;13284;52.748;13.452;2023-04-25T10:15:34;11.60;99.90
25332;DHT22;13284;52.748;13.452;2023-04-25T10:18:01;11.40;99.90
25332;DHT22;13284;52.748;13.452;2023-04-25T10:20:28;11.50;99.90
25332;DHT22;13284;52.748;13.452;2023-04-25T10:22:55;11.70;99.90
25332;DHT22;13284;52.748;13.452;2023-04-25T10:25:23;12.10;99.90
25332;DHT22;13284;52.748;13.452;2023-04-25T10:27:53;12.50;99.90
25332;DHT22;13284;52.748;13.452;2023-04-25T10:30:19;12.50;99.90
25332;DHT22;13284;52.748;13.452;2023-04-25T10:32:45;12.00;99.90
25332;DHT22;13284;52.748;13.452;2023-04-25T10:35:19;12.00;99.90
25332;DHT22;13284;52.748;13.452;2023-04-25T10:38:03;12.30;99.90
25332;DHT22;13284;52.748;13.452;2023-04-25T10:40:29;12.40;99.90
25332;DHT22;13284;52.748;13.452;2023-04-25T10:42:55;12.30;99.90
25332;DHT22;13284;52.748;13.452;2023-04-25T10:45:53;12.50;99.90
25332;DHT22;13284;52.748;13.452;2023-04-25T10:48:25;11.90;99.90
25332;DHT22;13284;52.748;13.452;2023-04-25T10:51:07;11.70;99.90
25332;DHT22;13284;52.748;13.452;2023-04-25T10:53:34;11.50;99.90
25332;DHT22;13284;52.748;13.452;2023-04-25T10:55:59;11.40;99.90
25332;DHT22;13284;52.748;13.452;2023-04-25T10:58:26;11.50;99.90
25332;DHT22;13284;52.748;13.452;2023-04-25T11:00:55;11.40;99.90
25332;DHT22;13284;52.748;13.452;2023-04-25T11:03:21;11.60;99.90
25332;DHT22;13284;52.748;13.452;2023-04-25T11:05:48;11.80;99.90
25332;DHT22;13284;52.748;13.452;2023-04-25T11:08:22;11.40;99.90
25332;DHT22;13284;52.748;13.452;2023-04-25T11:10:53;11.30;99.90
25332;DHT22;13284;52.748;13.452;2023-04-25T11:13:29;11.20;99.90
25332;DHT22;13284;52.748;13.452;2023-04-25T11:15:55;11.10;99.90
25332;DHT22;13284;52.748;13.452;2023-04-25T11:18:20;11.30;99.90
25332;DHT22;13284;52.748;13.452;2023-04-25T11:20:47;11.00;99.90
25332;DHT22;13284;52.748;13.452;2023-04-25T11:23:13;10.70;99.90
25332;DHT22;13284;52.748;13.452;2023-04-25T11:25:40;11.00;99.90
25332;DHT22;13284;52.748;13.452;2023-04-25T11:28:06;11.30;99.90
25332;DHT22;13284;52.748;13.452;2023-04-25T11:30:31;11.10;99.90
25332;DHT22;13284;52.748;13.452;2023-04-25T11:32:57;11.30;99.90
25332;DHT22;13284;52.748;13.452;2023-04-25T11:35:22;11.40;99.90
25332;DHT22;13284;52.748;13.452;2023-04-25T11:37:50;11.30;99.90
25332;DHT22;13284;52.748;13.452;2023-04-25T11:40:16;11.20;99.90
25332;DHT22;13284;52.748;13.452;2023-04-25T11:42:46;11.10;99.90
25332;DHT22;13284;52.748;13.452;2023-04-25T11:45:13;11.20;99.90
25332;DHT22;13284;52.748;13.452;2023-04-25T11:47:39;11.30;99.90
25332;DHT22;13284;52.748;13.452;2023-04-25T11:50:06;11.40;99.90
25332;DHT22;13284;52.748;13.452;2023-04-25T11:52:40;11.50;99.90
25332;DHT22;13284;52.748;13.452;2023-04-25T11:55:07;11.70;99.90
25332;DHT22;13284;52.748;13.452;2023-04-25T11:57:33;11.70;99.90
25332;DHT22;13284;52.748;13.452;2023-04-25T12:00:09;11.70;99.90
25332;DHT22;13284;52.748;13.452;2023-04-25T12:02:37;11.40;99.90
25332;DHT22;13284;52.748;13.452;2023-04-25T12:05:09;11.40;99.90
25332;DHT22;13284;52.748;13.452;2023-04-25T12:07:35;11.30;99.90
25332;DHT22;13284;52.748;13.452;2023-04-25T12:10:06;11.40;99.90
25332;DHT22;13284;52.748;13.452;2023-04-25T12:12:34;11.50;99.90
25332;DHT22;13284;52.748;13.452;2023-04-25T12:17:41;11.90;99.90
25332;DHT22;13284;52.748;13.452;2023-04-25T12:20:14;11.40;99.90
25332;DHT22;13284;52.748;13.452;2023-04-25T12:22:47;11.40;99.90
25332;DHT22;13284;52.748;13.452;2023-04-25T12:25:42;11.10;99.90
25332;DHT22;13284;52.748;13.452;2023-04-25T12:28:28;10.70;99.90
25332;DHT22;13284;52.748;13.452;2023-04-25T12:31:04;11.00;99.90
25332;DHT22;13284;52.748;13.452;2023-04-25T12:33:35;11.00;99.90
25332;DHT22;13284;52.748;13.452;2023-04-25T12:36:02;11.20;99.90
25332;DHT22;13284;52.748;13.452;2023-04-25T12:38:41;10.90;99.90
25332;DHT22;13284;52.748;13.452;2023-04-25T12:41:08;10.70;99.90
25332;DHT22;13284;52.748;13.452;2023-04-25T12:43:34;10.90;99.90
25332;DHT22;13284;52.748;13.452;2023-04-25T12:46:00;10.80;99.90
25332;DHT22;13284;52.748;13.452;2023-04-25T12:48:25;11.00;99.90
25332;DHT22;13284;52.748;13.452;2023-04-25T12:50:51;10.90;99.90
25332;DHT22;13284;52.748;13.452;2023-04-25T12:53:19;11.00;99.90
25332;DHT22;13284;52.748;13.452;2023-04-25T12:55:45;10.80;99.90
25332;DHT22;13284;52.748;13.452;2023-04-25T12:58:14;10.80;99.90
25332;DHT22;13284;52.748;13.452;2023-04-25T13:00:40;10.80;99.90
25332;DHT22;13284;52.748;13.452;2023-04-25T13:03:05;10.80;99.90
25332;DHT22;13284;52.748;13.452;2023-04-25T13:05:31;10.80;99.90
25332;DHT22;13284;52.748;13.452;2023-04-25T13:07:57;10.90;99.90
25332;DHT22;13284;52.748;13.452;2023-04-25T13:10:22;10.60;99.90
25332;DHT22;13284;52.748;13.452;2023-04-25T13:12:48;10.50;99.90
25332;DHT22;13284;52.748;13.452;2023-04-25T13:15:14;10.50;99.90
25332;DHT22;13284;52.748;13.452;2023-04-25T13:17:41;10.50;99.90
25332;DHT22;13284;52.748;13.452;2023-04-25T13:20:07;10.70;99.90
25332;DHT22;13284;52.748;13.452;2023-04-25T13:22:35;10.80;99.90
25332;DHT22;13284;52.748;13.452;2023-04-25T13:25:02;10.90;99.90
25332;DHT22;13284;52.748;13.452;2023-04-25T13:27:28;10.90;99.90
25332;DHT22;13284;52.748;13.452;2023-04-25T13:29:54;10.90;99.90
25332;DHT22;13284;52.748;13.452;2023-04-25T13:32:20;10.70;99.90
25332;DHT22;13284;52.748;13.452;2023-04-25T13:34:45;10.70;99.90
25332;DHT22;13284;52.748;13.452;2023-04-25T13:37:11;10.90;99.90
25332;DHT22;13284;52.748;13.452;2023-04-25T13:39:36;10.60;99.90
25332;DHT22;13284;52.748;13.452;2023-04-25T13:42:02;10.40;99.90
25332;DHT22;13284;52.748;13.452;2023-04-25T13:44:28;10.30;99.90
25332;DHT22;13284;52.748;13.452;2023-04-25T13:46:53;10.10;99.90
25332;DHT22;13284;52.748;13.452;2023-04-25T13:49:19;10.10;99.90
25332;DHT22;13284;52.748;13.452;2023-04-25T13:51:45;9.80;99.90
25332;DHT22;13284;52.748;13.452;2023-04-25T13:54:10;9.70;99.90
25332;DHT22;13284;52.748;13.452;2023-04-25T13:56:36;9.80;99.90
25332;DHT22;13284;52.748;13.452;2023-04-25T13:59:01;9.80;99.90
25332;DHT22;13284;52.748;13.452;2023-04-25T14:01:27;9.90;99.90
25332;DHT22;13284;52.748;13.452;2023-04-25T14:03:53;10.00;99.90
25332;DHT22;13284;52.748;13.452;2023-04-25T14:06:19;9.80;99.90
25332;DHT22;13284;52.748;13.452;2023-04-25T14:08:49;9.90;99.90
25332;DHT22;13284;52.748;13.452;2023-04-25T14:11:14;9.90;99.90
25332;DHT22;13284;52.748;13.452;2023-04-25T14:13:40;10.10;99.90
25332;DHT22;13284;52.748;13.452;2023-04-25T14:16:05;10.20;99.90
25332;DHT22;13284;52.748;13.452;2023-04-25T14:18:31;10.10;99.90
25332;DHT22;13284;52.748;13.452;2023-04-25T14:20:56;10.20;99.90
25332;DHT22;13284;52.748;13.452;2023-04-25T14:23:22;10.40;99.90
25332;DHT22;13284;52.748;13.452;2023-04-25T14:25:47;10.40;99.90
25332;DHT22;13284;52.748;13.452;2023-04-25T14:28:13;10.30;99.90
25332;DHT22;13284;52.748;13.452;2023-04-25T14:30:38;10.30;99.90
25332;DHT22;13284;52.748;13.452;2023-04-25T14:33:04;10.20;99.90
25332;DHT22;13284;52.748;13.452;2023-04-25T14:35:30;10.20;99.90
25332;DHT22;13284;52.748;13.452;2023-04-25T14:37:56;10.10;99.90
25332;DHT22;13284;52.748;13.452;2023-04-25T14:40:25;10.20;99.90
25332;DHT22;13284;52.748;13.452;2023-04-25T14:42:54;10.90;99.90
25332;DHT22;13284;52.748;13.452;2023-04-25T14:45:19;11.20;99.90
25332;DHT22;13284;52.748;13.452;2023-04-25T14:47:45;11.30;99.90
25332;DHT22;13284;52.748;13.452;2023-04-25T14:50:11;11.60;99.90
25332;DHT22;13284;52.748;13.452;2023-04-25T14:52:37;11.80;99.90
25332;DHT22;13284;52.748;13.452;2023-04-25T14:55:02;11.80;99.90
25332;DHT22;13284;52.748;13.452;2023-04-25T14:57:32;12.10;99.90
25332;DHT22;13284;52.748;13.452;2023-04-25T14:59:58;11.80;99.90
25332;DHT22;13284;52.748;13.452;2023-04-25T15:02:24;11.60;99.90
25332;DHT22;13284;52.748;13.452;2023-04-25T15:04:51;11.70;99.90
25332;DHT22;13284;52.748;13.452;2023-04-25T15:07:16;11.90;99.90
25332;DHT22;13284;52.748;13.452;2023-04-25T15:09:42;12.20;99.90
25332;DHT22;13284;52.748;13.452;2023-04-25T15:12:07;12.20;99.90
25332;DHT22;13284;52.748;13.452;2023-04-25T15:14:33;12.50;99.90
25332;DHT22;13284;52.748;13.452;2023-04-25T15:16:59;12.20;99.90
25332;DHT22;13284;52.748;13.452;2023-04-25T15:19:25;11.90;99.90
25332;DHT22;13284;52.748;13.452;2023-04-25T15:21:51;12.00;99.90
25332;DHT22;13284;52.748;13.452;2023-04-25T15:24:17;11.80;99.90
25332;DHT22;13284;52.748;13.452;2023-04-25T15:26:43;11.50;99.90
25332;DHT22;13284;52.748;13.452;2023-04-25T15:29:09;11.50;99.90